Time;durP1;ratioP1;P1;durP2;ratioP2;P2;SDS_P1;SDS_P2;PMS_P1;PMS_P2;Temp;Humidity;BMP_temperature;BMP_pressure;BME280_temperature;BME280_humidity;BME280_pressure;Samples;Min_cycle;Max_cycle;Signal;HPM_P1;HPM_P2
2022/07/20 00:00:48;;;;;;;6.60;4.65;;;21.80;60.50;;;;;;5063002;28;20029;-27
2022/07/20 00:03:14;;;;;;;5.25;4.50;;;21.80;60.20;;;;;;5056737;28;20118;-27
2022/07/20 00:05:41;;;;;;;4.95;4.40;;;21.80;61.10;;;;;;5037282;28;20453;-27
2022/07/20 00:08:10;;;;;;;5.93;4.45;;;21.70;61.70;;;;;;5059403;28;20060;-27
2022/07/20 00:13:21;;;;;;;6.00;4.10;;;21.60;62.10;;;;;;5062536;28;20079;-27
2022/07/20 00:15:48;;;;;;;5.22;4.13;;;21.60;62.20;;;;;;5060838;28;20037;-27
2022/07/20 00:18:14;;;;;;;5.07;4.40;;;21.50;62.90;;;;;;5063591;28;20123;-27
2022/07/20 00:20:40;;;;;;;4.95;4.38;;;21.50;62.70;;;;;;5056630;28;20439;-27
2022/07/20 00:23:06;;;;;;;6.88;4.50;;;21.40;62.70;;;;;;5054829;28;20090;-27
2022/07/20 00:25:37;;;;;;;4.65;4.25;;;21.40;63.00;;;;;;5053799;28;20041;-27
2022/07/20 00:28:03;;;;;;;5.25;4.55;;;21.30;64.00;;;;;;5059465;28;20037;-27
2022/07/20 00:30:28;;;;;;;7.07;4.78;;;21.20;64.80;;;;;;5059442;28;20037;-25
2022/07/20 00:32:54;;;;;;;8.55;4.85;;;21.20;65.50;;;;;;5057767;28;20043;-24
2022/07/20 00:35:20;;;;;;;6.75;4.47;;;21.10;65.10;;;;;;5066412;28;20526;-25
2022/07/20 00:37:46;;;;;;;5.28;4.50;;;21.10;65.00;;;;;;5044571;28;20032;-24
2022/07/20 00:40:14;;;;;;;5.10;4.40;;;21.00;64.40;;;;;;5069035;28;20106;-24
2022/07/20 00:42:40;;;;;;;5.05;4.32;;;21.00;64.40;;;;;;5071905;28;20040;-24
2022/07/20 00:45:09;;;;;;;6.22;4.55;;;21.00;65.00;;;;;;5071393;28;20463;-24
2022/07/20 00:47:34;;;;;;;5.30;4.22;;;21.00;65.10;;;;;;5064845;28;20032;-24
2022/07/20 00:50:00;;;;;;;5.10;4.60;;;20.90;64.50;;;;;;5055867;28;20037;-24
2022/07/20 00:52:26;;;;;;;5.10;4.45;;;20.90;64.80;;;;;;5071940;28;20048;-24
2022/07/20 00:54:53;;;;;;;7.90;4.90;;;20.90;65.70;;;;;;5053727;28;20039;-24
2022/07/20 00:57:20;;;;;;;6.53;4.38;;;20.80;67.00;;;;;;5054036;28;20090;-24
2022/07/20 00:59:46;;;;;;;7.57;4.70;;;20.80;67.50;;;;;;5055892;28;20045;-24
2022/07/20 01:02:12;;;;;;;4.50;4.10;;;20.70;67.60;;;;;;5061790;28;20370;-24
2022/07/20 01:04:39;;;;;;;4.63;4.22;;;20.70;69.30;;;;;;5066801;28;20527;-24
2022/07/20 01:07:05;;;;;;;6.88;4.35;;;20.70;69.20;;;;;;5043267;28;20036;-24
2022/07/20 01:09:34;;;;;;;6.43;4.75;;;20.60;69.30;;;;;;5064038;28;20051;-24
2022/07/20 01:12:00;;;;;;;7.13;4.55;;;20.60;71.40;;;;;;5051692;28;20474;-24
2022/07/20 01:14:25;;;;;;;6.03;4.70;;;20.50;71.90;;;;;;5051567;28;20047;-24
2022/07/20 01:16:51;;;;;;;5.25;4.63;;;20.50;72.30;;;;;;5051686;28;20087;-24
2022/07/20 01:19:17;;;;;;;6.22;4.95;;;20.40;74.30;;;;;;5033484;28;20047;-24
2022/07/20 01:21:43;;;;;;;4.80;4.35;;;20.40;75.20;;;;;;5051572;28;20044;-25
2022/07/20 01:24:11;;;;;;;6.75;4.70;;;20.40;75.90;;;;;;5054337;28;20044;-24
2022/07/20 01:26:45;;;;;;;5.20;4.70;;;20.40;77.80;;;;;;5062590;28;20405;-24
2022/07/20 01:29:12;;;;;;;4.90;4.40;;;20.30;78.60;;;;;;5051504;28;20045;-24
2022/07/20 01:31:38;;;;;;;5.50;4.90;;;20.30;78.00;;;;;;5051764;28;20095;-26
2022/07/20 01:34:04;;;;;;;5.05;4.65;;;20.30;78.10;;;;;;5058389;28;20040;-26
2022/07/20 01:36:30;;;;;;;5.80;5.15;;;20.20;78.70;;;;;;5054959;28;20124;-23
2022/07/20 01:38:56;;;;;;;6.35;4.75;;;20.20;79.10;;;;;;5054411;28;20141;-24
2022/07/20 01:41:22;;;;;;;6.70;4.75;;;20.20;80.60;;;;;;5051383;28;20052;-24
2022/07/20 01:43:47;;;;;;;6.97;4.55;;;20.10;79.80;;;;;;5051482;28;20033;-24
2022/07/20 01:46:13;;;;;;;5.00;4.60;;;20.10;79.50;;;;;;5060816;28;20063;-24
2022/07/20 01:48:39;;;;;;;6.28;4.75;;;20.10;78.20;;;;;;5047532;28;20112;-24
2022/07/20 01:51:05;;;;;;;5.70;5.00;;;20.10;79.70;;;;;;5051258;28;20541;-25
2022/07/20 01:53:36;;;;;;;5.28;4.88;;;20.00;81.10;;;;;;5066768;28;20406;-24
2022/07/20 01:56:02;;;;;;;5.13;4.70;;;20.00;80.30;;;;;;5071191;28;20076;-24
2022/07/20 01:58:27;;;;;;;5.03;4.63;;;20.00;80.90;;;;;;5052441;28;20474;-24
2022/07/20 02:00:53;;;;;;;5.65;4.45;;;20.00;81.40;;;;;;5032901;28;20071;-24
2022/07/20 02:03:19;;;;;;;5.40;4.72;;;19.90;82.40;;;;;;5054252;28;20265;-24
2022/07/20 02:05:46;;;;;;;4.82;4.43;;;19.90;84.40;;;;;;5051203;28;20037;-24
2022/07/20 02:08:11;;;;;;;5.40;4.80;;;19.90;84.00;;;;;;5065560;28;20107;-24
2022/07/20 02:10:37;;;;;;;6.03;5.28;;;19.80;84.80;;;;;;5032988;28;20139;-24
2022/07/20 02:13:03;;;;;;;5.45;4.88;;;19.80;84.80;;;;;;5051108;28;20071;-24
2022/07/20 02:18:13;;;;;;;5.18;4.65;;;19.80;84.00;;;;;;5060417;28;20072;-25
2022/07/20 02:20:40;;;;;;;5.78;4.80;;;19.80;84.60;;;;;;5069992;28;20134;-25
2022/07/20 02:23:08;;;;;;;7.25;5.30;;;19.80;85.30;;;;;;5063019;28;20525;-25
2022/07/20 02:25:36;;;;;;;6.38;5.03;;;19.70;85.80;;;;;;5053759;28;20052;-26
2022/07/20 02:28:05;;;;;;;6.88;4.47;;;19.70;85.00;;;;;;5051093;28;20071;-25
2022/07/20 02:30:31;;;;;;;5.30;4.68;;;19.70;85.00;;;;;;5066622;28;20059;-24
2022/07/20 02:32:56;;;;;;;6.70;4.95;;;19.70;85.90;;;;;;5045015;28;20041;-24
2022/07/20 02:35:22;;;;;;;5.20;4.63;;;19.70;85.50;;;;;;5056134;28;20070;-26
2022/07/20 02:37:48;;;;;;;5.15;4.65;;;19.70;84.60;;;;;;5057488;28;20036;-26
2022/07/20 02:40:22;;;;;;;5.40;4.68;;;19.70;84.30;;;;;;5063371;28;20029;-27
2022/07/20 02:42:48;;;;;;;6.07;5.60;;;19.70;83.60;;;;;;5025122;28;20469;-27
2022/07/20 02:45:14;;;;;;;6.13;5.55;;;19.70;83.00;;;;;;5055773;28;20033;-27
2022/07/20 02:47:44;;;;;;;7.85;5.28;;;19.70;82.90;;;;;;5055072;28;20465;-27
2022/07/20 02:50:14;;;;;;;5.55;5.05;;;19.70;83.00;;;;;;5059617;28;20033;-27
2022/07/20 02:52:41;;;;;;;7.80;5.30;;;19.70;82.90;;;;;;5046493;28;20536;-27
2022/07/20 02:55:08;;;;;;;6.28;5.07;;;19.70;82.80;;;;;;5066365;28;20040;-27
2022/07/20 02:57:34;;;;;;;6.53;5.18;;;19.60;81.90;;;;;;5052355;28;20033;-27
2022/07/20 03:00:01;;;;;;;5.72;4.78;;;19.60;85.50;;;;;;5060275;28;20080;-27
2022/07/20 03:02:27;;;;;;;5.70;4.80;;;19.60;86.40;;;;;;5064210;28;20028;-27
2022/07/20 03:04:52;;;;;;;5.60;5.13;;;19.50;88.30;;;;;;5054659;28;20040;-27
2022/07/20 03:07:18;;;;;;;5.25;4.75;;;19.50;90.10;;;;;;5062501;28;20037;-27
2022/07/20 03:09:44;;;;;;;6.55;5.40;;;19.50;89.50;;;;;;5059004;28;20060;-27
2022/07/20 03:12:09;;;;;;;6.25;4.90;;;19.50;89.50;;;;;;5063461;28;20370;-27
2022/07/20 03:14:35;;;;;;;5.47;4.90;;;19.40;87.20;;;;;;5048850;28;20032;-27
2022/07/20 03:17:01;;;;;;;5.70;5.10;;;19.40;89.40;;;;;;5061190;28;20044;-27
2022/07/20 03:19:29;;;;;;;5.53;5.03;;;19.30;88.50;;;;;;5051002;28;20472;-27
2022/07/20 03:21:55;;;;;;;6.22;5.40;;;19.30;89.00;;;;;;5072644;28;20033;-27
2022/07/20 03:24:20;;;;;;;5.95;4.70;;;19.30;88.20;;;;;;5028900;28;20428;-27
2022/07/20 03:26:46;;;;;;;5.80;5.30;;;19.30;88.20;;;;;;5059139;28;20942;-27
2022/07/20 03:29:12;;;;;;;6.20;5.60;;;19.30;89.80;;;;;;5066314;28;20515;-27
2022/07/20 03:31:37;;;;;;;6.00;5.43;;;19.30;90.70;;;;;;5059226;28;20127;-27
2022/07/20 03:34:03;;;;;;;5.65;5.18;;;19.20;90.40;;;;;;5055388;28;20067;-27
2022/07/20 03:36:29;;;;;;;5.68;5.10;;;19.20;90.80;;;;;;5065305;28;20064;-27
2022/07/20 03:38:54;;;;;;;6.63;5.07;;;19.20;91.10;;;;;;5057002;28;20025;-27
2022/07/20 03:41:20;;;;;;;6.20;5.60;;;19.10;90.80;;;;;;5067362;28;20032;-27
2022/07/20 03:43:46;;;;;;;6.65;5.38;;;19.10;92.10;;;;;;5064388;28;20409;-26
2022/07/20 03:46:11;;;;;;;5.65;5.15;;;19.10;93.00;;;;;;5065119;28;20482;-27
2022/07/20 03:48:37;;;;;;;5.80;5.30;;;19.10;92.70;;;;;;5049336;28;20071;-27
2022/07/20 03:51:04;;;;;;;5.75;5.18;;;19.00;92.40;;;;;;5052281;28;20041;-27
2022/07/20 03:53:29;;;;;;;6.20;5.60;;;19.10;93.10;;;;;;5053039;28;20095;-26
2022/07/20 03:55:55;;;;;;;5.78;4.82;;;19.00;93.40;;;;;;5069812;28;20482;-27
2022/07/20 03:58:21;;;;;;;6.18;5.13;;;19.00;93.70;;;;;;5061717;28;20047;-27
2022/07/20 04:00:46;;;;;;;5.80;5.28;;;19.10;93.70;;;;;;5057742;28;20520;-27
2022/07/20 04:03:12;;;;;;;6.40;5.70;;;19.10;94.90;;;;;;5062460;28;20029;-26
2022/07/20 04:05:38;;;;;;;7.15;5.38;;;19.10;94.40;;;;;;5052393;28;20489;-27
2022/07/20 04:08:04;;;;;;;7.07;5.20;;;19.00;94.50;;;;;;5058317;28;20032;-27
2022/07/20 04:10:30;;;;;;;6.45;5.80;;;19.00;94.30;;;;;;5053273;28;20509;-27
2022/07/20 04:12:58;;;;;;;6.47;5.80;;;19.00;94.50;;;;;;5059036;28;20033;-27
2022/07/20 04:15:24;;;;;;;8.13;5.47;;;19.00;94.60;;;;;;5061222;28;20041;-27
2022/07/20 04:17:50;;;;;;;5.72;5.22;;;19.00;94.20;;;;;;5062740;28;20040;-27
2022/07/20 04:20:15;;;;;;;6.15;5.40;;;19.00;95.30;;;;;;5065475;28;20036;-27
2022/07/20 04:22:41;;;;;;;5.90;5.30;;;19.10;95.00;;;;;;5061939;28;20037;-26
2022/07/20 04:25:07;;;;;;;6.03;5.38;;;19.10;94.90;;;;;;5069537;28;20353;-27
2022/07/20 04:27:33;;;;;;;8.60;5.30;;;19.00;94.70;;;;;;5066004;28;20509;-27
2022/07/20 04:29:58;;;;;;;6.75;5.55;;;19.10;95.70;;;;;;5064061;28;20116;-27
2022/07/20 04:32:24;;;;;;;7.28;5.35;;;19.10;96.10;;;;;;5057129;28;20375;-27
2022/07/20 04:34:50;;;;;;;7.18;5.88;;;19.20;95.80;;;;;;5059938;28;20037;-27
2022/07/20 04:37:15;;;;;;;6.30;5.72;;;19.20;94.70;;;;;;5040216;28;20497;-27
2022/07/20 04:39:41;;;;;;;8.05;6.05;;;19.20;95.60;;;;;;5058704;28;20028;-27
2022/07/20 04:42:07;;;;;;;8.27;6.00;;;19.20;95.50;;;;;;5056553;28;20123;-27
2022/07/20 04:44:32;;;;;;;6.07;5.43;;;19.20;95.80;;;;;;5057465;28;20028;-26
2022/07/20 04:46:58;;;;;;;7.75;5.97;;;19.30;94.60;;;;;;5034440;28;20057;-27
2022/07/20 04:49:24;;;;;;;6.88;5.43;;;19.40;95.50;;;;;;5060109;28;20033;-27
2022/07/20 04:51:50;;;;;;;8.55;6.07;;;19.40;94.40;;;;;;5060840;28;20047;-27
2022/07/20 04:54:18;;;;;;;6.32;5.60;;;19.40;94.80;;;;;;5057875;28;20193;-27
2022/07/20 04:56:44;;;;;;;6.72;5.50;;;19.40;93.00;;;;;;5064618;28;20075;-27
2022/07/20 04:59:10;;;;;;;6.95;5.20;;;19.50;92.80;;;;;;5052213;28;20357;-27
2022/07/20 05:01:36;;;;;;;8.55;5.72;;;19.60;93.10;;;;;;5065456;28;20037;-27
2022/07/20 05:04:01;;;;;;;7.80;5.88;;;19.60;93.80;;;;;;5053351;28;20044;-27
2022/07/20 05:06:27;;;;;;;7.25;6.00;;;19.70;93.60;;;;;;5063999;28;20052;-27
2022/07/20 05:08:53;;;;;;;6.68;5.57;;;19.70;91.10;;;;;;5055434;28;20040;-27
2022/07/20 05:11:18;;;;;;;6.60;5.78;;;19.80;91.30;;;;;;5059251;28;20398;-27
2022/07/20 05:13:44;;;;;;;6.38;5.82;;;19.90;91.20;;;;;;5068465;28;20104;-27
2022/07/20 05:16:10;;;;;;;6.25;5.40;;;19.90;91.30;;;;;;5040632;28;20537;-27
2022/07/20 05:18:36;;;;;;;7.75;5.70;;;19.90;92.10;;;;;;5033215;28;20397;-27
2022/07/20 05:21:03;;;;;;;6.53;5.93;;;20.00;91.80;;;;;;5067017;28;20489;-27
2022/07/20 05:23:29;;;;;;;7.10;5.85;;;20.00;91.80;;;;;;5055325;28;20028;-27
2022/07/20 05:25:55;;;;;;;9.13;5.90;;;20.10;91.00;;;;;;5050759;28;20413;-27
2022/07/20 05:28:21;;;;;;;7.47;5.78;;;20.20;90.70;;;;;;5051563;28;20028;-27
2022/07/20 05:30:48;;;;;;;8.38;6.15;;;20.40;88.90;;;;;;5061636;28;20040;-27
2022/07/20 05:33:14;;;;;;;6.70;6.07;;;20.40;87.60;;;;;;5061216;28;20035;-27
2022/07/20 05:35:40;;;;;;;7.63;6.13;;;20.50;86.70;;;;;;5061842;28;20504;-27
2022/07/20 05:38:06;;;;;;;9.25;6.25;;;20.60;85.30;;;;;;5072370;22;20064;-23
2022/07/20 05:40:32;;;;;;;9.98;6.55;;;20.70;83.60;;;;;;5046649;28;20423;-23
2022/07/20 05:42:57;;;;;;;7.88;5.80;;;20.80;83.00;;;;;;5040848;28;20072;-23
2022/07/20 05:45:23;;;;;;;15.82;7.28;;;20.90;82.70;;;;;;5047125;28;20165;-23
2022/07/20 05:47:49;;;;;;;7.93;5.45;;;21.00;82.20;;;;;;5023651;28;20033;-24
2022/07/20 05:50:14;;;;;;;7.82;5.93;;;21.10;83.60;;;;;;5045501;28;20128;-24
2022/07/20 05:52:40;;;;;;;6.93;5.90;;;21.20;82.70;;;;;;5045937;28;20120;-24
2022/07/20 05:55:07;;;;;;;7.10;6.05;;;21.30;82.60;;;;;;5044449;28;20098;-23
2022/07/20 05:57:33;;;;;;;10.32;6.55;;;21.40;81.90;;;;;;5044163;28;20045;-24
2022/07/20 05:59:59;;;;;;;9.27;6.20;;;21.50;80.20;;;;;;5045763;28;20029;-24
2022/07/20 06:02:24;;;;;;;8.10;6.55;;;21.60;80.30;;;;;;5029922;28;20036;-24
2022/07/20 06:04:50;;;;;;;9.23;6.60;;;21.70;80.20;;;;;;5046285;28;20041;-24
2022/07/20 06:07:16;;;;;;;6.65;5.90;;;21.90;81.20;;;;;;5044919;28;20465;-24
2022/07/20 06:09:41;;;;;;;7.75;6.55;;;21.90;80.60;;;;;;5044479;28;20084;-23
2022/07/20 06:12:07;;;;;;;7.72;5.63;;;22.10;80.70;;;;;;5046077;28;20033;-24
2022/07/20 06:14:33;;;;;;;7.80;5.97;;;22.20;81.60;;;;;;5040295;28;20048;-24
2022/07/20 06:16:59;;;;;;;10.52;6.07;;;22.30;81.90;;;;;;5044195;28;20041;-24
2022/07/20 06:19:24;;;;;;;7.88;5.85;;;22.40;81.80;;;;;;5043539;28;20025;-24
2022/07/20 06:21:50;;;;;;;7.63;5.47;;;22.50;81.20;;;;;;5049074;28;20314;-24
2022/07/20 06:24:16;;;;;;;6.40;5.90;;;22.70;81.30;;;;;;5049059;28;20068;-24
2022/07/20 06:26:41;;;;;;;6.38;5.78;;;22.80;80.50;;;;;;5029367;28;20047;-24
2022/07/20 06:29:07;;;;;;;7.20;6.10;;;22.90;81.20;;;;;;5045410;28;20430;-24
2022/07/20 06:31:33;;;;;;;6.53;5.93;;;23.00;81.00;;;;;;5043679;28;20405;-23
2022/07/20 06:33:58;;;;;;;11.02;6.13;;;23.20;79.00;;;;;;5043653;28;20101;-24
2022/07/20 06:36:24;;;;;;;10.95;5.63;;;23.30;77.00;;;;;;5047105;28;20061;-24
2022/07/20 06:38:50;;;;;;;7.30;6.10;;;23.60;74.90;;;;;;5047852;28;20029;-24
2022/07/20 06:41:15;;;;;;;6.72;6.13;;;23.70;73.50;;;;;;5053297;28;20478;-24
2022/07/20 06:43:41;;;;;;;8.27;6.13;;;23.90;72.20;;;;;;5049360;28;20044;-24
2022/07/20 06:46:07;;;;;;;6.82;6.00;;;24.00;71.30;;;;;;5049475;28;20037;-24
2022/07/20 06:48:34;;;;;;;9.88;6.20;;;24.20;70.20;;;;;;5048793;28;20047;-24
2022/07/20 06:50:59;;;;;;;6.40;5.80;;;24.30;69.00;;;;;;5047297;28;20049;-24
2022/07/20 06:53:25;;;;;;;5.97;5.38;;;24.50;68.00;;;;;;5052450;28;20052;-24
2022/07/20 06:55:51;;;;;;;8.07;5.50;;;24.70;66.60;;;;;;5050145;28;20069;-24
2022/07/20 06:58:16;;;;;;;8.18;5.40;;;24.90;65.20;;;;;;5046247;28;20095;-24
2022/07/20 07:00:45;;;;;;;6.90;6.20;;;25.00;64.60;;;;;;5043804;28;20399;-24
2022/07/20 07:03:11;;;;;;;7.65;5.90;;;25.20;63.30;;;;;;5049462;28;20036;-24
2022/07/20 07:05:36;;;;;;;7.07;6.15;;;25.30;62.10;;;;;;5052448;28;20041;-24
2022/07/20 07:08:02;;;;;;;8.52;6.20;;;25.40;61.10;;;;;;5049235;28;20048;-24
2022/07/20 07:10:28;;;;;;;9.07;6.35;;;25.50;59.80;;;;;;5052336;28;20044;-24
2022/07/20 07:12:53;;;;;;;7.03;6.20;;;25.60;59.30;;;;;;5047083;28;20037;-24
2022/07/20 07:15:19;;;;;;;6.82;6.18;;;25.70;58.80;;;;;;5029573;28;20066;-24
2022/07/20 07:17:45;;;;;;;7.30;6.22;;;25.90;58.70;;;;;;5047259;28;20143;-24
2022/07/20 07:20:11;;;;;;;8.65;6.45;;;26.00;58.50;;;;;;5052690;28;20115;-24
2022/07/20 07:22:36;;;;;;;7.43;6.70;;;26.10;58.10;;;;;;5050142;28;20108;-27
2022/07/20 07:25:03;;;;;;;9.93;6.35;;;26.30;57.50;;;;;;5050109;28;20045;-27
2022/07/20 07:27:29;;;;;;;8.25;7.55;;;26.40;57.80;;;;;;5036667;28;20041;-27
2022/07/20 07:29:54;;;;;;;10.55;7.82;;;26.50;57.30;;;;;;5056379;28;20037;-28
2022/07/20 07:32:20;;;;;;;8.18;7.45;;;26.50;56.80;;;;;;5048997;28;20652;-27
2022/07/20 07:34:46;;;;;;;9.35;7.60;;;26.70;57.10;;;;;;5051328;28;20052;-27
2022/07/20 07:37:11;;;;;;;12.73;7.82;;;26.80;57.20;;;;;;5049651;28;20048;-27
2022/07/20 07:39:37;;;;;;;12.13;9.15;;;26.90;57.00;;;;;;5048447;28;20122;-27
2022/07/20 07:42:03;;;;;;;11.40;8.27;;;27.00;56.90;;;;;;5047455;28;20033;-24
2022/07/20 07:44:32;;;;;;;9.18;8.27;;;27.10;57.20;;;;;;5045005;28;20052;-24
2022/07/20 07:46:58;;;;;;;13.30;8.82;;;27.30;57.30;;;;;;5052363;28;20048;-25
2022/07/20 07:49:27;;;;;;;10.88;9.45;;;27.40;57.20;;;;;;5052993;28;20044;-24
2022/07/20 07:51:55;;;;;;;11.65;9.32;;;27.50;57.40;;;;;;5052988;28;20105;-24
2022/07/20 07:54:21;;;;;;;11.73;10.27;;;27.60;57.70;;;;;;5052785;28;20048;-24
2022/07/20 07:56:50;;;;;;;11.93;10.02;;;27.70;57.40;;;;;;5047745;28;20033;-24
2022/07/20 07:59:18;;;;;;;12.23;11.02;;;27.80;57.40;;;;;;5040708;28;20437;-25
2022/07/20 08:01:44;;;;;;;12.23;10.88;;;27.80;57.50;;;;;;5046448;28;20384;-24
2022/07/20 08:04:10;;;;;;;14.13;11.38;;;27.90;57.90;;;;;;5043417;28;20037;-24
2022/07/20 08:06:36;;;;;;;14.20;12.20;;;28.00;58.20;;;;;;5044594;28;20040;-24
2022/07/20 08:09:05;;;;;;;16.75;13.02;;;28.00;58.70;;;;;;5034592;28;20049;-24
2022/07/20 08:11:31;;;;;;;15.93;13.93;;;28.10;59.20;;;;;;5050511;28;20409;-24
2022/07/20 08:13:59;;;;;;;16.45;14.85;;;28.30;59.50;;;;;;5052518;28;20037;-25
2022/07/20 08:16:25;;;;;;;17.90;16.00;;;28.40;59.90;;;;;;5048612;28;20083;-24
2022/07/20 08:18:53;;;;;;;20.58;18.58;;;28.60;60.40;;;;;;5052360;28;20478;-24
2022/07/20 08:21:19;;;;;;;20.23;18.40;;;28.70;60.60;;;;;;5042613;28;20040;-24
2022/07/20 08:23:44;;;;;;;21.33;18.23;;;28.60;60.70;;;;;;5045005;28;20032;-25
2022/07/20 08:26:10;;;;;;;22.00;19.65;;;28.60;61.40;;;;;;5052289;28;20052;-25
2022/07/20 08:28:40;;;;;;;22.05;19.58;;;28.70;62.30;;;;;;5040905;28;20037;-24
2022/07/20 08:31:05;;;;;;;22.08;19.88;;;28.80;62.30;;;;;;5052218;28;20084;-24
2022/07/20 08:33:31;;;;;;;23.23;20.77;;;28.70;62.60;;;;;;5040738;28;20065;-25
2022/07/20 08:35:57;;;;;;;22.73;20.42;;;28.70;62.90;;;;;;5040765;28;20134;-25
2022/07/20 08:38:25;;;;;;;25.90;22.35;;;28.80;63.50;;;;;;5038226;28;20037;-24
2022/07/20 08:40:51;;;;;;;24.42;21.83;;;28.70;64.00;;;;;;5052184;28;20504;-24
2022/07/20 08:43:17;;;;;;;24.63;22.13;;;28.70;64.10;;;;;;5052239;28;20112;-25
2022/07/20 08:45:44;;;;;;;24.80;21.95;;;28.80;64.60;;;;;;5025748;28;20051;-25
2022/07/20 08:48:12;;;;;;;24.35;21.55;;;28.90;64.40;;;;;;5019789;28;20565;-24
2022/07/20 08:50:38;;;;;;;23.58;21.08;;;29.10;64.20;;;;;;5045530;28;20098;-24
2022/07/20 08:53:04;;;;;;;23.90;21.40;;;29.40;64.10;;;;;;5042595;28;20371;-27
2022/07/20 08:55:30;;;;;;;23.52;21.30;;;29.70;63.60;;;;;;5039871;28;20508;-27
2022/07/20 08:57:57;;;;;;;24.58;21.20;;;29.90;63.40;;;;;;5050820;28;20036;-24
2022/07/20 09:00:23;;;;;;;25.70;21.90;;;30.00;62.50;;;;;;5052259;28;20051;-24
2022/07/20 09:02:48;;;;;;;22.83;20.45;;;30.20;62.30;;;;;;5052643;28;20037;-24
2022/07/20 09:05:14;;;;;;;24.10;21.52;;;30.10;61.20;;;;;;5052560;28;20083;-24
2022/07/20 09:07:43;;;;;;;26.25;21.67;;;30.10;60.40;;;;;;5052714;28;20068;-24
2022/07/20 09:10:14;;;;;;;24.92;22.35;;;30.10;60.50;;;;;;5049468;28;20052;-25
2022/07/20 09:13:00;;;;;;;25.02;22.33;;;30.30;60.20;;;;;;5050454;28;20037;-24
2022/07/20 09:16:04;;;;;;;27.83;24.83;;;30.50;60.20;;;;;;5050513;28;20112;-24
2022/07/20 09:18:34;;;;;;;29.70;25.30;;;30.50;58.80;;;;;;4968790;28;20045;-25
2022/07/20 09:21:03;;;;;;;29.90;26.80;;;30.50;57.90;;;;;;5035067;28;20049;-25
2022/07/20 09:23:44;;;;;;;30.00;26.85;;;30.60;58.30;;;;;;5032576;28;20037;-24
2022/07/20 09:26:16;;;;;;;28.83;25.83;;;30.50;57.60;;;;;;5052404;28;20041;-24
2022/07/20 09:28:43;;;;;;;29.98;27.27;;;30.70;56.60;;;;;;5052194;28;20045;-25
2022/07/20 09:31:20;;;;;;;28.33;25.75;;;30.80;57.10;;;;;;5051936;28;20084;-25
2022/07/20 09:33:51;;;;;;;27.90;25.25;;;30.90;56.00;;;;;;5051872;28;20200;-25
2022/07/20 09:36:19;;;;;;;28.75;25.77;;;30.90;56.20;;;;;;5052380;28;20137;-25
2022/07/20 09:38:44;;;;;;;28.70;25.90;;;31.00;55.60;;;;;;5033931;28;20077;-25
2022/07/20 09:41:28;;;;;;;27.20;24.60;;;31.00;55.50;;;;;;5051719;28;20044;-25
2022/07/20 09:43:55;;;;;;;28.45;25.58;;;31.10;54.90;;;;;;5052218;28;20116;-25
2022/07/20 09:46:23;;;;;;;29.02;25.98;;;31.30;55.20;;;;;;5051932;28;20444;-25
2022/07/20 09:48:57;;;;;;;26.80;24.15;;;31.40;54.10;;;;;;5051766;28;20439;-25
2022/07/20 09:51:34;;;;;;;25.92;23.52;;;31.40;51.30;;;;;;5051008;28;20080;-25
2022/07/20 09:54:02;;;;;;;26.30;23.52;;;31.30;50.90;;;;;;5051237;28;20045;-23
2022/07/20 09:56:28;;;;;;;25.33;22.42;;;31.30;51.70;;;;;;5051669;28;20602;-23
2022/07/20 09:58:56;;;;;;;25.67;23.25;;;31.20;51.70;;;;;;5052085;28;20072;-23
2022/07/20 10:01:31;;;;;;;25.42;22.95;;;31.20;51.10;;;;;;5033822;28;20041;-25
2022/07/20 10:03:58;;;;;;;25.30;22.85;;;31.30;51.10;;;;;;5033665;28;20037;-25
2022/07/20 10:06:26;;;;;;;24.45;21.85;;;31.50;51.20;;;;;;5051565;28;20045;-25
2022/07/20 10:08:52;;;;;;;23.48;20.98;;;31.70;51.40;;;;;;5051610;28;20486;-25
2022/07/20 10:11:19;;;;;;;24.20;21.60;;;32.00;51.20;;;;;;5053894;28;20037;-26
2022/07/20 10:13:50;;;;;;;23.20;21.00;;;32.20;51.60;;;;;;5055008;28;20033;-26
2022/07/20 10:16:33;;;;;;;22.60;20.38;;;32.40;50.90;;;;;;5052263;28;20037;-24
2022/07/20 10:18:59;;;;;;;21.20;19.05;;;32.40;48.80;;;;;;5049066;28;20043;-23
2022/07/20 10:21:37;;;;;;;20.15;18.25;;;32.30;49.30;;;;;;5049743;28;20382;-23
2022/07/20 10:24:29;;;;;;;20.67;18.58;;;32.40;48.00;;;;;;5052048;28;20127;-23
2022/07/20 10:26:54;;;;;;;18.67;16.77;;;32.30;47.90;;;;;;5035571;28;20087;-24
2022/07/20 10:29:29;;;;;;;17.08;15.55;;;32.30;47.90;;;;;;5047120;28;20042;-23
2022/07/20 10:32:08;;;;;;;18.00;16.20;;;32.40;46.50;;;;;;5051495;28;20109;-26
2022/07/20 10:34:39;;;;;;;18.30;16.50;;;32.40;47.00;;;;;;5037336;28;20429;-23
2022/07/20 10:37:24;;;;;;;17.17;15.68;;;32.60;47.00;;;;;;5037035;28;20092;-25
2022/07/20 10:40:15;;;;;;;17.73;16.02;;;32.50;46.60;;;;;;5035836;28;20083;-23
2022/07/20 10:42:42;;;;;;;17.13;15.52;;;32.40;47.30;;;;;;5037181;28;20087;-23
2022/07/20 10:45:17;;;;;;;15.98;14.30;;;32.40;47.70;;;;;;5019090;28;20201;-25
2022/07/20 10:47:45;;;;;;;16.10;14.60;;;32.80;48.20;;;;;;5036882;28;20041;-25
2022/07/20 10:50:27;;;;;;;17.02;13.75;;;33.10;48.30;;;;;;5037135;28;20561;-26
2022/07/20 10:53:13;;;;;;;14.68;13.32;;;33.40;47.90;;;;;;5039011;28;20513;-24
2022/07/20 10:55:42;;;;;;;13.65;12.38;;;33.70;47.60;;;;;;5044896;28;20132;-23
2022/07/20 10:58:09;;;;;;;15.38;12.73;;;33.70;46.80;;;;;;5038276;28;20037;-23
2022/07/20 11:00:42;;;;;;;14.25;12.77;;;33.70;46.10;;;;;;5056659;28;20033;-23
2022/07/20 11:03:23;;;;;;;13.63;12.32;;;33.70;46.00;;;;;;5053022;28;20413;-23
2022/07/20 11:05:59;;;;;;;14.98;12.27;;;33.70;43.80;;;;;;5055078;28;20029;-23
2022/07/20 11:08:25;;;;;;;13.15;12.02;;;33.60;45.30;;;;;;5056450;28;20037;-23
2022/07/20 11:10:52;;;;;;;13.52;12.13;;;33.70;45.90;;;;;;5057268;28;20404;-24
2022/07/20 11:13:18;;;;;;;13.07;11.68;;;33.70;46.00;;;;;;5056862;28;20045;-24
2022/07/20 11:15:47;;;;;;;12.85;11.65;;;33.70;45.50;;;;;;5056488;28;20064;-24
2022/07/20 11:18:19;;;;;;;12.93;11.77;;;33.50;45.20;;;;;;5057051;28;20045;-24
2022/07/20 11:20:53;;;;;;;12.63;11.30;;;33.50;45.20;;;;;;5056852;28;20041;-24
2022/07/20 11:23:21;;;;;;;17.60;11.68;;;33.50;45.90;;;;;;5055109;28;20120;-24
2022/07/20 11:26:00;;;;;;;15.32;11.88;;;33.40;45.50;;;;;;5056737;28;20045;-24
2022/07/20 11:28:33;;;;;;;11.80;10.75;;;33.60;46.00;;;;;;5055978;28;20037;-25
2022/07/20 11:31:01;;;;;;;13.25;12.05;;;33.70;45.30;;;;;;5056777;28;20045;-24
2022/07/20 11:33:31;;;;;;;12.68;11.43;;;33.80;45.70;;;;;;5056635;28;20518;-24
2022/07/20 11:36:06;;;;;;;12.00;10.85;;;33.90;45.20;;;;;;5056532;28;20045;-24
2022/07/20 11:38:42;;;;;;;12.40;10.95;;;33.90;45.00;;;;;;5055998;28;20233;-25
2022/07/20 11:41:11;;;;;;;12.57;10.30;;;33.80;43.80;;;;;;5053783;28;20068;-28
2022/07/20 11:43:37;;;;;;;11.52;10.20;;;34.00;44.30;;;;;;5039594;28;20059;-28
2022/07/20 11:46:17;;;;;;;11.65;10.45;;;34.20;43.70;;;;;;5044326;28;20053;-28
2022/07/20 11:48:45;;;;;;;11.45;10.40;;;34.10;43.70;;;;;;5023948;28;20087;-28
2022/07/20 11:51:11;;;;;;;11.05;10.10;;;34.10;43.60;;;;;;5031864;28;20126;-28
2022/07/20 11:53:40;;;;;;;10.68;9.23;;;34.50;44.60;;;;;;5039916;28;20040;-27
2022/07/20 11:56:13;;;;;;;10.05;9.15;;;34.40;43.70;;;;;;5049583;28;20041;-27
2022/07/20 11:58:40;;;;;;;10.13;9.20;;;34.20;42.50;;;;;;5030385;28;20037;-28
2022/07/20 12:01:11;;;;;;;12.95;9.73;;;34.30;42.80;;;;;;5049710;28;20041;-27
2022/07/20 12:03:39;;;;;;;11.50;8.98;;;34.10;42.90;;;;;;5050285;28;20040;-28
2022/07/20 12:06:11;;;;;;;9.40;8.43;;;34.20;43.20;;;;;;5048790;28;20048;-28
2022/07/20 12:08:38;;;;;;;9.27;8.35;;;34.10;41.80;;;;;;5032229;28;20179;-28
2022/07/20 12:11:05;;;;;;;9.02;8.05;;;34.20;41.80;;;;;;5043940;28;20033;-28
2022/07/20 12:13:42;;;;;;;9.02;8.13;;;34.30;41.50;;;;;;5051235;28;20037;-28
2022/07/20 12:16:08;;;;;;;8.73;7.90;;;33.90;41.30;;;;;;5049948;28;20112;-28
2022/07/20 12:18:46;;;;;;;10.05;8.30;;;33.90;41.70;;;;;;5034661;28;20176;-28
2022/07/20 12:21:15;;;;;;;8.82;7.93;;;34.20;42.40;;;;;;5050633;28;20102;-28
2022/07/20 12:23:44;;;;;;;9.02;8.13;;;34.20;41.40;;;;;;5026735;28;20405;-24
2022/07/20 12:26:40;;;;;;;9.40;8.60;;;34.60;42.20;;;;;;5038564;28;20398;-24
2022/07/20 12:29:26;;;;;;;9.95;9.02;;;34.80;41.80;;;;;;5039383;28;20052;-24
2022/07/20 12:31:58;;;;;;;11.57;8.98;;;35.00;41.30;;;;;;5054489;28;20044;-24
2022/07/20 12:34:24;;;;;;;9.68;8.63;;;35.30;41.90;;;;;;5040085;28;20246;-24
2022/07/20 12:36:51;;;;;;;9.57;8.52;;;35.70;41.90;;;;;;5033802;28;20056;-25
2022/07/20 12:39:49;;;;;;;9.00;8.20;;;36.10;41.30;;;;;;5035471;28;20045;-24
2022/07/20 12:42:24;;;;;;;9.30;8.40;;;36.50;39.70;;;;;;5035253;28;20061;-24
2022/07/20 12:45:01;;;;;;;9.73;7.90;;;36.40;40.50;;;;;;5035833;28;20116;-24
2022/07/20 12:47:27;;;;;;;10.23;8.48;;;36.40;39.50;;;;;;5017774;28;20099;-24
2022/07/20 12:49:53;;;;;;;9.75;8.75;;;35.80;39.30;;;;;;5035789;28;20049;-24